createdAt,value
2024-02-29T00:02:56.650Z,28.07
2024-02-29T00:06:06.108Z,23.85
2024-02-29T00:09:10.082Z,26.02
2024-02-29T00:12:13.342Z,25.77
2024-02-29T00:15:18.733Z,27.60
2024-02-29T00:18:21.998Z,24.30
2024-02-29T00:21:25.283Z,24.75
2024-02-29T00:24:28.513Z,27.00
2024-02-29T00:27:32.913Z,23.67
2024-02-29T00:30:37.650Z,24.97
2024-02-29T00:33:41.987Z,26.33
2024-02-29T00:36:45.602Z,25.73
2024-02-29T00:39:49.314Z,27.63
2024-02-29T00:42:52.624Z,31.38
2024-02-29T00:45:57.321Z,24.73
2024-02-29T00:49:00.567Z,27.40
2024-02-29T00:52:04.313Z,27.50
2024-02-29T00:55:09.101Z,23.05
2024-02-29T00:58:12.492Z,22.77
2024-02-29T01:01:17.297Z,28.50
2024-02-29T01:04:20.736Z,27.37
2024-02-29T01:07:24.182Z,28.10
2024-02-29T01:10:27.765Z,26.42
2024-02-29T01:13:31.145Z,27.85
2024-02-29T01:16:35.754Z,25.33
2024-02-29T01:19:39.033Z,26.33
2024-02-29T01:22:42.275Z,24.27
2024-02-29T01:25:45.435Z,23.95
2024-02-29T01:28:48.652Z,25.38
2024-02-29T01:31:53.332Z,28.73
2024-02-29T01:34:56.879Z,25.30
2024-02-29T01:38:00.065Z,26.10
2024-02-29T01:41:03.277Z,24.52
2024-02-29T01:44:08.903Z,25.80
2024-02-29T01:47:14.079Z,27.83
2024-02-29T01:50:18.021Z,24.47
2024-02-29T01:53:21.363Z,25.33
2024-02-29T01:56:24.822Z,25.38
2024-02-29T01:59:29.055Z,28.42
2024-02-29T02:02:33.888Z,26.57
2024-02-29T02:05:37.249Z,25.27
2024-02-29T02:08:40.669Z,26.65
2024-02-29T02:11:43.840Z,23.65
2024-02-29T02:14:47.083Z,25.52
2024-02-29T02:17:51.932Z,23.77
2024-02-29T02:20:57.737Z,24.70
2024-02-29T02:24:06.901Z,23.20
2024-02-29T02:27:10.104Z,24.25
2024-02-29T02:30:13.860Z,24.85
2024-02-29T02:33:17.548Z,24.17
2024-02-29T02:36:22.373Z,24.67
2024-02-29T02:39:28.534Z,26.67
2024-02-29T02:42:31.734Z,28.90
2024-02-29T02:45:35.010Z,28.83
2024-02-29T02:48:38.484Z,25.80
2024-02-29T02:51:43.176Z,27.40
2024-02-29T02:54:46.400Z,25.48
2024-02-29T02:57:49.635Z,26.42
2024-02-29T03:00:53.487Z,26.20
2024-02-29T03:03:56.800Z,21.23
2024-02-29T03:07:01.562Z,26.70
2024-02-29T03:10:05.272Z,22.20
2024-02-29T03:13:09.008Z,21.80
2024-02-29T03:16:12.419Z,23.13
2024-02-29T03:19:15.716Z,27.63
2024-02-29T03:22:20.474Z,32.37
2024-02-29T03:25:23.723Z,30.50
2024-02-29T03:28:26.948Z,31.17
2024-02-29T03:31:30.235Z,22.38
2024-02-29T03:34:33.596Z,32.70
2024-02-29T03:37:38.264Z,29.77
2024-02-29T03:40:45.555Z,29.77
2024-02-29T03:43:48.729Z,26.52
2024-02-29T03:46:51.915Z,28.83
2024-02-29T03:49:55.183Z,28.37
2024-02-29T03:53:04.575Z,36.93
2024-02-29T03:56:08.929Z,40.80
2024-02-29T03:59:12.082Z,29.08
2024-02-29T04:02:15.522Z,28.05
2024-02-29T04:05:18.689Z,29.10
2024-02-29T04:08:23.263Z,24.13
2024-02-29T04:11:26.456Z,28.17
2024-02-29T04:14:29.645Z,25.23
2024-02-29T04:17:34.687Z,29.55
2024-02-29T04:20:37.861Z,32.03
2024-02-29T04:23:42.376Z,35.43
2024-02-29T04:26:45.503Z,24.02
2024-02-29T04:29:48.749Z,24.77
2024-02-29T04:32:52.178Z,25.58
2024-02-29T04:35:55.459Z,25.60
2024-02-29T04:39:00.184Z,26.17
2024-02-29T04:42:04.835Z,24.88
2024-02-29T04:45:09.126Z,30.35
2024-02-29T04:48:12.270Z,32.40
2024-02-29T04:51:16.452Z,30.73
2024-02-29T04:54:20.960Z,30.00
2024-02-29T04:57:24.080Z,29.35
2024-02-29T05:00:27.161Z,25.65
2024-02-29T05:03:30.557Z,27.90
2024-02-29T05:06:33.825Z,28.83
2024-02-29T05:09:39.747Z,26.10
2024-02-29T05:12:43.024Z,26.13
2024-02-29T05:15:46.254Z,27.55
2024-02-29T05:18:49.562Z,22.40
2024-02-29T05:21:53.099Z,28.17
2024-02-29T05:24:59.460Z,27.23
2024-02-29T05:28:03.038Z,27.90
2024-02-29T05:31:06.617Z,27.88
2024-02-29T05:34:10.341Z,29.83
2024-02-29T05:37:13.691Z,29.17
2024-02-29T05:40:18.601Z,29.23
2024-02-29T05:43:21.811Z,33.13
2024-02-29T05:46:25.095Z,32.88
2024-02-29T05:49:28.307Z,27.15
2024-02-29T05:52:31.601Z,34.23
2024-02-29T05:55:37.373Z,28.27
2024-02-29T05:58:40.653Z,32.55
2024-02-29T06:01:44.012Z,29.13
2024-02-29T06:04:47.212Z,32.35
2024-02-29T06:07:50.499Z,26.00
2024-02-29T06:10:55.152Z,23.67
2024-02-29T06:14:01.273Z,28.05
2024-02-29T06:17:04.571Z,25.85
2024-02-29T06:20:11.780Z,24.55
2024-02-29T06:23:27.770Z,24.70
2024-02-29T06:26:32.367Z,30.57
2024-02-29T06:29:37.263Z,24.42
2024-02-29T06:32:47.487Z,27.48
2024-02-29T06:35:51.944Z,25.10
2024-02-29T06:38:56.092Z,27.20
2024-02-29T06:42:17.252Z,33.00
2024-02-29T06:45:21.286Z,25.02
2024-02-29T06:48:28.731Z,28.08
2024-02-29T06:55:08.664Z,26.93
2024-02-29T06:58:13.690Z,28.70
2024-02-29T07:01:21.213Z,26.95
2024-02-29T07:04:24.624Z,36.72
2024-02-29T07:07:29.262Z,29.10
2024-02-29T07:10:33.922Z,27.77
2024-02-29T07:13:38.473Z,27.53
2024-02-29T07:16:45.000Z,28.00
2024-02-29T07:19:48.355Z,32.35
2024-02-29T07:22:55.245Z,29.20
2024-02-29T07:26:08.407Z,26.70
2024-02-29T07:29:16.576Z,27.60
2024-02-29T07:32:19.709Z,26.95
2024-02-29T07:35:23.083Z,25.60
2024-02-29T07:38:33.385Z,29.17
2024-02-29T07:41:36.638Z,31.30
2024-02-29T07:44:41.181Z,26.73
2024-02-29T07:47:44.382Z,32.67
2024-02-29T07:50:47.881Z,27.08
2024-02-29T07:53:54.178Z,29.33
2024-02-29T07:56:57.414Z,38.23
2024-02-29T08:00:02.654Z,29.23
2024-02-29T08:03:08.048Z,28.55
2024-02-29T08:06:11.296Z,31.33
2024-02-29T08:09:21.177Z,27.13
2024-02-29T08:12:24.778Z,30.07
2024-02-29T08:15:30.029Z,28.77
2024-02-29T08:18:34.572Z,26.73
2024-02-29T08:21:40.251Z,30.02
2024-02-29T08:24:43.717Z,35.75
2024-02-29T08:27:47.192Z,31.37
2024-02-29T08:30:55.213Z,27.57
2024-02-29T08:34:01.794Z,21.50
2024-02-29T08:37:06.579Z,40.88
2024-02-29T08:41:05.195Z,24.70
2024-02-29T08:44:08.781Z,23.87
2024-02-29T08:47:15.931Z,26.07
2024-02-29T08:50:19.465Z,24.35
2024-02-29T08:53:23.648Z,25.02
2024-02-29T08:56:27.128Z,21.63
2024-02-29T08:59:39.260Z,22.77
2024-02-29T09:02:44.783Z,22.13
2024-02-29T09:05:48.312Z,22.88
2024-02-29T09:08:54.908Z,21.63
2024-02-29T09:11:58.373Z,27.05
2024-02-29T09:15:13.260Z,25.70
2024-02-29T09:18:18.093Z,24.83
2024-02-29T09:21:50.165Z,27.40
2024-02-29T09:24:55.968Z,21.33
2024-02-29T09:27:59.344Z,31.40
2024-02-29T09:31:02.956Z,29.90
2024-02-29T09:34:08.842Z,20.47
2024-02-29T09:37:12.449Z,25.42
2024-02-29T09:40:17.018Z,29.83
2024-02-29T09:43:23.203Z,21.90
2024-02-29T09:46:26.692Z,22.73
2024-02-29T09:50:05.507Z,22.73
2024-02-29T09:53:14.450Z,24.17
2024-02-29T09:56:20.375Z,27.10
2024-02-29T09:59:28.853Z,21.45
2024-02-29T10:02:32.568Z,25.57
2024-02-29T10:05:36.087Z,26.27
2024-02-29T10:08:40.769Z,24.10
2024-02-29T10:12:19.132Z,24.35
2024-02-29T10:18:56.521Z,24.93
2024-02-29T10:22:02.253Z,30.07
2024-02-29T10:25:14.252Z,25.00
2024-02-29T10:28:17.696Z,31.48
2024-02-29T10:31:21.184Z,21.95
2024-02-29T10:34:24.852Z,23.53
2024-02-29T10:37:28.354Z,25.60
2024-02-29T10:40:38.322Z,25.70
2024-02-29T10:43:48.844Z,22.58
2024-02-29T10:46:59.052Z,25.27
2024-02-29T10:50:06.975Z,23.90
2024-02-29T10:53:30.705Z,24.93
2024-02-29T10:56:54.594Z,22.50
2024-02-29T11:00:04.837Z,25.25
2024-02-29T11:03:11.222Z,21.80
2024-02-29T11:06:15.410Z,26.07
2024-02-29T11:09:23.912Z,26.97
2024-02-29T11:12:35.619Z,36.30
2024-02-29T11:15:50.241Z,22.50
2024-02-29T11:19:09.294Z,22.25
2024-02-29T11:22:24.313Z,26.43
2024-02-29T11:29:46.807Z,23.60
2024-02-29T11:33:06.574Z,24.67
2024-02-29T11:41:18.560Z,25.20
2024-02-29T11:49:56.896Z,23.73
2024-02-29T11:53:03.896Z,25.27
2024-02-29T11:56:14.949Z,23.77
2024-02-29T11:59:26.149Z,21.27
2024-02-29T12:02:32.725Z,27.93
2024-02-29T12:05:45.310Z,31.75
2024-02-29T12:09:56.455Z,25.90
2024-02-29T12:17:42.958Z,20.67
2024-02-29T12:20:56.631Z,21.37
2024-02-29T12:24:37.430Z,23.63
2024-02-29T12:27:49.433Z,21.08
2024-02-29T12:30:57.375Z,22.95
2024-02-29T12:34:02.678Z,17.10
2024-02-29T12:37:11.776Z,22.37
2024-02-29T12:40:26.400Z,18.98
2024-02-29T12:43:31.426Z,22.40
2024-02-29T12:46:34.925Z,20.08
2024-02-29T12:49:39.534Z,22.10
2024-02-29T12:52:44.640Z,28.13
2024-02-29T12:55:52.504Z,22.25
2024-02-29T12:58:59.273Z,20.77
2024-02-29T13:02:05.869Z,25.40
2024-02-29T13:05:10.523Z,22.23
2024-02-29T13:08:15.630Z,17.03
2024-02-29T13:11:21.528Z,18.90
2024-02-29T13:14:25.140Z,16.05
2024-02-29T13:17:32.299Z,16.27
2024-02-29T13:20:35.879Z,16.77
2024-02-29T13:23:41.607Z,15.47
2024-02-29T13:26:45.204Z,17.15
2024-02-29T13:29:48.477Z,22.10
2024-02-29T13:32:52.146Z,19.55
2024-02-29T13:35:58.475Z,17.10
2024-02-29T13:39:15.582Z,17.10
2024-02-29T13:42:19.255Z,17.40
2024-02-29T13:45:22.739Z,22.02
2024-02-29T13:48:26.786Z,17.55
2024-02-29T13:51:30.430Z,15.83
2024-02-29T13:55:01.907Z,16.47
2024-02-29T13:58:06.772Z,15.98
2024-02-29T14:01:26.235Z,16.73
2024-02-29T14:04:32.899Z,21.98
2024-02-29T14:07:40.358Z,16.00
2024-02-29T14:10:52.030Z,15.30
2024-02-29T14:13:55.251Z,17.63
2024-02-29T14:16:58.671Z,17.95
2024-02-29T14:20:01.912Z,17.23
2024-02-29T14:23:05.501Z,24.47
2024-02-29T14:26:10.282Z,20.10
2024-02-29T14:29:17.251Z,21.15
2024-02-29T14:32:21.189Z,21.15
2024-02-29T14:35:24.527Z,17.00
2024-02-29T14:38:28.518Z,21.37
2024-02-29T14:41:36.435Z,27.90
2024-02-29T14:44:40.004Z,32.83
2024-02-29T14:47:43.644Z,20.85
2024-02-29T14:50:47.206Z,32.00
2024-02-29T14:53:51.790Z,22.47
2024-02-29T14:56:56.442Z,26.67
2024-02-29T15:00:00.529Z,29.90
2024-02-29T15:03:04.395Z,22.58
2024-02-29T15:06:09.298Z,24.00
2024-02-29T15:09:13.414Z,23.73
2024-02-29T15:12:18.343Z,21.60
2024-02-29T15:15:23.728Z,22.23
2024-02-29T15:18:27.838Z,22.17
2024-02-29T15:21:33.966Z,21.52
2024-02-29T15:24:53.248Z,22.07
2024-02-29T15:28:05.293Z,23.27
2024-02-29T15:31:11.283Z,22.30
2024-02-29T15:34:14.526Z,23.08
2024-02-29T15:37:17.838Z,22.27
2024-02-29T15:40:21.292Z,22.30
2024-02-29T15:43:26.106Z,20.73
2024-02-29T15:46:30.148Z,23.15
2024-02-29T15:49:34.985Z,20.38
2024-02-29T15:52:38.608Z,19.33
2024-02-29T15:55:43.086Z,21.00
2024-02-29T15:58:47.891Z,24.20
2024-02-29T16:01:51.117Z,23.45
2024-02-29T16:04:54.453Z,30.63
2024-02-29T16:07:58.195Z,23.40
2024-02-29T16:11:01.962Z,26.37
2024-02-29T16:14:08.005Z,23.10
2024-02-29T16:17:16.391Z,23.33
2024-02-29T16:20:19.877Z,23.42
2024-02-29T16:23:23.089Z,22.38
2024-02-29T16:26:26.800Z,24.77
2024-02-29T16:29:31.374Z,27.47
2024-02-29T16:32:34.668Z,19.70
2024-02-29T16:35:39.454Z,24.90
2024-02-29T16:38:42.928Z,22.60
2024-02-29T16:41:46.457Z,25.87
2024-02-29T16:44:51.534Z,22.07
2024-02-29T16:47:55.640Z,23.05
2024-02-29T16:51:00.227Z,24.33
2024-02-29T16:54:07.075Z,24.00
2024-02-29T16:57:13.654Z,25.30
2024-02-29T17:00:19.312Z,25.77
2024-02-29T17:03:22.912Z,26.77
2024-02-29T17:06:26.720Z,24.02
2024-02-29T17:09:30.370Z,26.35
2024-02-29T17:12:34.128Z,24.83
2024-02-29T17:15:39.160Z,27.40
2024-02-29T17:18:42.994Z,27.92
2024-02-29T17:21:46.388Z,25.77
2024-02-29T17:24:50.065Z,26.02
2024-02-29T17:27:55.280Z,27.87
2024-02-29T17:31:02.075Z,28.53
2024-02-29T17:34:05.359Z,27.02
2024-02-29T17:37:09.369Z,28.90
2024-02-29T17:40:13.611Z,33.42
2024-02-29T17:43:18.521Z,38.43
2024-02-29T17:46:23.272Z,32.43
2024-02-29T17:49:26.890Z,31.48
2024-02-29T17:52:30.148Z,34.92
2024-02-29T17:55:33.567Z,30.58
2024-02-29T17:58:37.745Z,32.37
2024-02-29T18:01:42.860Z,31.67
2024-02-29T18:04:50.437Z,35.35
2024-02-29T18:07:59.201Z,35.95
2024-02-29T18:11:06.532Z,32.00
2024-02-29T18:14:09.790Z,30.80
2024-02-29T18:17:15.083Z,29.67
2024-02-29T18:20:19.229Z,27.50
2024-02-29T18:23:23.891Z,27.60
2024-02-29T18:26:27.403Z,26.23
2024-02-29T18:29:30.924Z,27.27
2024-02-29T18:32:35.835Z,25.00
2024-02-29T18:35:39.599Z,32.67
2024-02-29T18:38:43.027Z,29.08
2024-02-29T18:41:46.444Z,25.23
2024-02-29T18:44:49.896Z,28.40
2024-02-29T18:47:54.808Z,29.80
2024-02-29T18:50:58.470Z,38.17
2024-02-29T18:54:02.115Z,38.08
2024-02-29T18:57:05.907Z,36.15
2024-02-29T19:00:11.205Z,33.20
2024-02-29T19:03:17.095Z,28.87
2024-02-29T19:06:20.805Z,26.98
2024-02-29T19:09:23.916Z,31.95
2024-02-29T19:12:28.898Z,26.83
2024-02-29T19:15:32.325Z,30.37
2024-02-29T19:18:37.568Z,28.80
2024-02-29T19:21:40.939Z,33.30
2024-02-29T19:24:44.418Z,26.98
2024-02-29T19:27:48.303Z,27.27
2024-02-29T19:30:53.124Z,28.83
2024-02-29T19:33:57.781Z,31.17
2024-02-29T19:37:06.781Z,27.77
2024-02-29T19:40:11.014Z,27.98
2024-02-29T19:43:16.788Z,29.35
2024-02-29T19:46:23.132Z,32.80
2024-02-29T19:49:28.375Z,30.83
2024-02-29T19:52:35.622Z,36.75
2024-02-29T19:55:40.784Z,34.13
2024-02-29T19:58:44.399Z,29.90
2024-02-29T20:01:47.996Z,27.93
2024-02-29T20:04:53.393Z,34.57
2024-02-29T20:07:56.794Z,29.60
2024-02-29T20:11:00.128Z,28.25
2024-02-29T20:14:05.516Z,28.27
2024-02-29T20:17:08.804Z,31.73
2024-02-29T20:20:14.411Z,31.10
2024-02-29T20:23:19.591Z,36.30
2024-02-29T20:26:26.834Z,31.38
2024-02-29T20:29:30.290Z,35.25
2024-02-29T20:32:33.512Z,33.90
2024-02-29T20:35:38.868Z,29.60
2024-02-29T20:38:42.840Z,29.63
2024-02-29T20:41:46.373Z,31.52
2024-02-29T20:44:50.198Z,32.60
2024-02-29T20:47:54.002Z,34.90
2024-02-29T20:50:59.057Z,36.07
2024-02-29T20:54:02.296Z,35.08
2024-02-29T20:57:06.571Z,29.60
2024-02-29T21:00:11.341Z,27.33
2024-02-29T21:03:15.113Z,31.87
2024-02-29T21:06:23.833Z,32.00
2024-02-29T21:09:28.009Z,30.85
2024-02-29T21:12:31.357Z,30.92
2024-02-29T21:15:36.004Z,29.63
2024-02-29T21:18:39.512Z,31.27
2024-02-29T21:21:45.441Z,31.37
2024-02-29T21:24:48.756Z,30.92
2024-02-29T21:27:58.068Z,28.45
2024-02-29T21:31:01.420Z,29.50
2024-02-29T21:34:05.343Z,28.90
2024-02-29T21:37:10.559Z,35.50
2024-02-29T21:40:14.732Z,30.30
2024-02-29T21:43:18.165Z,30.58
2024-02-29T21:46:22.578Z,39.05
2024-02-29T21:49:28.207Z,32.33
2024-02-29T21:52:33.669Z,30.37
2024-02-29T21:55:37.278Z,32.72
2024-02-29T21:58:44.280Z,30.95
2024-02-29T22:01:47.847Z,31.40
2024-02-29T22:04:51.489Z,27.63
2024-02-29T22:07:56.019Z,30.90
2024-02-29T22:11:03.274Z,33.00
2024-02-29T22:14:06.547Z,30.77
2024-02-29T22:17:10.094Z,29.23
2024-02-29T22:20:14.078Z,32.03
2024-02-29T22:23:19.317Z,33.90
2024-02-29T22:26:26.019Z,32.20
2024-02-29T22:29:29.654Z,37.92
2024-02-29T22:32:33.223Z,34.72
2024-02-29T22:35:38.476Z,31.63
2024-02-29T22:38:50.460Z,33.50
2024-02-29T22:41:57.515Z,33.50
2024-02-29T22:45:07.044Z,32.10
2024-02-29T22:48:10.354Z,34.40
2024-02-29T22:51:13.624Z,30.50
2024-02-29T22:54:19.179Z,30.97
2024-02-29T22:57:22.480Z,31.98
2024-02-29T23:00:31.940Z,30.13
2024-02-29T23:03:35.837Z,29.38
2024-02-29T23:06:39.231Z,29.10
2024-02-29T23:09:43.999Z,31.37
2024-02-29T23:12:49.209Z,31.90
2024-02-29T23:15:52.812Z,28.27
2024-02-29T23:18:56.107Z,34.42
2024-02-29T23:21:59.319Z,29.63
2024-02-29T23:25:04.478Z,29.03
2024-02-29T23:28:08.199Z,30.20
2024-02-29T23:31:11.947Z,32.10
2024-02-29T23:34:15.321Z,30.52
2024-02-29T23:37:18.746Z,29.50
2024-02-29T23:40:23.327Z,28.83
2024-02-29T23:43:26.538Z,27.27
2024-02-29T23:46:29.722Z,29.15
2024-02-29T23:49:33.098Z,28.15
2024-02-29T23:52:36.285Z,28.47
2024-02-29T23:55:40.884Z,30.13
2024-02-29T23:58:44.153Z,27.20
